This is the latest recevied weather packets stored in our database for station/object DF9PV-5. If no packets are shown the sender has not sent any weather packets the latest 10 day(s).
| Time | Temp. | Humidity | Pressure | Rain* | Wind** | Luminosity | Snow |
|---|---|---|---|---|---|---|---|
| 1777808427 | 22.78° C | 36% | 1012.4 hPa | 0 mm | - | - | - |
| 1777807834 | 23.89° C | 33% | 1012.4 hPa | 0 mm | - | - | - |
| 1777806922 | 23.33° C | 33% | 1012.4 hPa | 0 mm | - | - | - |
| 1777806331 | 23.89° C | 33% | 1012.3 hPa | 0 mm | - | - | - |
| 1777805434 | 25° C | 31% | 1012.3 hPa | 0 mm | - | - | - |
| 1777803630 | 25° C | 30% | 1012.5 hPa | 0 mm | - | - | - |
| 1777803322 | 24.44° C | 30% | 1012.5 hPa | 0 mm | - | - | - |
| 1777802123 | 24.44° C | 35% | 1012.6 hPa | 0 mm | - | - | - |
| 1777799422 | 24.44° C | 35% | 1012.7 hPa | 0 mm | - | - | - |
| 1777797923 | 22.22° C | 42% | 1013 hPa | 0 mm | - | - | - |
| 1777797685 | 22.22° C | 43% | 1013.1 hPa | 0 mm | - | - | - |
| 1777797019 | 21.67° C | 44% | 1013.3 hPa | 0 mm | - | - | - |
| 1777796747 | 21.67° C | 47% | 1013.4 hPa | 0 mm | - | - | - |
| 1777796443 | 21.11° C | 48% | 1013.4 hPa | 0 mm | - | - | - |
| 1777795819 | 20.56° C | 50% | 1013.5 hPa | 0 mm | - | - | - |
| 1777794339 | 17.78° C | 58% | 1013.5 hPa | 0 mm | - | - | - |
| 1777789227 | 13.89° C | 73% | 1013.6 hPa | 0 mm | - | - | - |
| 1777787131 | 12.78° C | 81% | 1013.4 hPa | 0 mm | - | - | - |
| 1777784771 | 11.11° C | 84% | 1013.2 hPa | 0 mm | - | - | - |
| 1777781131 | 11.11° C | 86% | 1013.5 hPa | 0 mm | - | - | - |
| 1777780543 | 11.11° C | 87% | 1013.6 hPa | 0 mm | - | - | - |
| 1777779627 | 10.56° C | 86% | 1013.5 hPa | 0 mm | - | - | - |
| 1777779323 | 11.11° C | 86% | 1013.4 hPa | 0 mm | - | - | - |
| 1777776331 | 11.11° C | 84% | 1013.5 hPa | 0 mm | - | - | - |
| 1777775723 | 11.11° C | 85% | 1013.6 hPa | 0 mm | - | - | - |
* Rain latest hour (hover to see other rain measurements)
** Current wind speed in m/s (hover to see current wind gust speed)